Terminal Aerodrome Forecast
Issued by NWS

Home | Current Version | Previous Version | Text Only | Print | Product List | Glossary On
Versions: 1 2 3 4 5 6 7 8 9 10 11 12 13 14 15 16 17 18 19
000
FTUS45 KVEF 011438 AAA
TAFVGT
TAF AMD
KVGT 011438Z 0115/0212 VRB06KT P6SM SCT150 BKN200
      TEMPO 0117/0119 VRB10G20KT 6SM -TSRA SCT070CB BKN100
     FM011900 13007KT P6SM VCTS SCT090CB BKN150
      TEMPO 0119/0123 VRB10G20KT 6SM -TSRA SCT070CB BKN100
     FM020300 08008KT P6SM VCTS FEW080CB SCT110 BKN150
      TEMPO 0203/0206 VRB15G30KT 6SM -TSRA SCT070CB BKN100
     FM020700 34005KT P6SM FEW090 SCT120 BKN150=

USA.gov is the U.S. government's official web portal to all federal, state and local government web resources and services.